createdAt,value
2022-12-31T00:01:22.929Z,7.30
2022-12-31T00:04:25.924Z,7.26
2022-12-31T00:07:28.846Z,7.16
2022-12-31T00:10:31.928Z,7.10
2022-12-31T00:13:34.883Z,7.08
2022-12-31T00:16:40.811Z,7.09
2022-12-31T00:19:43.749Z,7.03
2022-12-31T00:22:46.761Z,6.94
2022-12-31T00:25:49.672Z,6.82
2022-12-31T00:28:54.364Z,6.67
2022-12-31T00:31:57.156Z,6.57
2022-12-31T00:34:59.953Z,6.49
2022-12-31T00:38:02.752Z,6.52
2022-12-31T00:41:06.460Z,6.48
2022-12-31T00:44:11.232Z,6.50
2022-12-31T00:47:13.945Z,6.51
2022-12-31T00:50:16.872Z,6.38
2022-12-31T00:53:20.241Z,6.26
2022-12-31T00:56:26.016Z,6.20
2022-12-31T00:59:28.692Z,6.09
2022-12-31T01:02:31.643Z,6.02
2022-12-31T01:05:35.951Z,5.98
2022-12-31T01:08:40.064Z,5.94
2022-12-31T01:11:43.580Z,5.92
2022-12-31T01:14:46.369Z,5.97
2022-12-31T01:17:49.155Z,6.11
2022-12-31T01:20:52.048Z,6.21
2022-12-31T01:23:54.877Z,6.35
2022-12-31T01:26:58.076Z,6.45
2022-12-31T01:30:01.982Z,6.58
2022-12-31T01:33:05.631Z,6.70
2022-12-31T01:36:12.448Z,6.88
2022-12-31T01:39:15.252Z,7.03
2022-12-31T01:42:18.136Z,7.06
2022-12-31T01:45:21.469Z,7.03
2022-12-31T01:48:26.781Z,7.10
2022-12-31T01:51:33.399Z,7.09
2022-12-31T01:54:44.544Z,7.13
2022-12-31T01:57:52.501Z,7.26
2022-12-31T02:00:59.331Z,7.26
2022-12-31T02:04:07.735Z,7.28
2022-12-31T02:07:12.843Z,7.28
2022-12-31T02:10:16.034Z,7.35
2022-12-31T02:13:19.006Z,7.32
2022-12-31T02:16:30.927Z,7.31
2022-12-31T02:19:55.028Z,7.18
2022-12-31T02:23:06.781Z,7.03
2022-12-31T02:26:28.227Z,6.90
2022-12-31T02:30:03.770Z,6.90
2022-12-31T02:33:20.493Z,6.85
2022-12-31T02:36:28.294Z,6.86
2022-12-31T02:39:32.757Z,6.82
2022-12-31T02:42:35.666Z,6.94
2022-12-31T02:45:43.122Z,6.96
2022-12-31T02:48:48.317Z,7.06
2022-12-31T02:52:01.335Z,7.12
2022-12-31T02:55:45.245Z,7.19
2022-12-31T02:59:06.743Z,7.27
2022-12-31T03:02:16.022Z,7.29
2022-12-31T03:05:23.470Z,7.23
2022-12-31T03:08:26.911Z,7.16
2022-12-31T03:11:48.289Z,7.14
2022-12-31T03:14:51.676Z,7.09
2022-12-31T03:17:57.643Z,6.97
2022-12-31T03:21:19.264Z,6.94
2022-12-31T03:24:42.132Z,6.86
2022-12-31T03:27:45.592Z,6.80
2022-12-31T03:30:55.011Z,6.89
2022-12-31T03:33:57.744Z,6.82
2022-12-31T03:37:00.557Z,6.64
2022-12-31T03:40:03.663Z,6.56
2022-12-31T03:43:06.887Z,6.61
2022-12-31T03:46:11.271Z,6.55
2022-12-31T03:49:14.146Z,6.42
2022-12-31T03:52:16.980Z,6.35
2022-12-31T03:55:19.912Z,6.32
2022-12-31T03:58:23.491Z,6.28
2022-12-31T04:01:26.714Z,6.13
2022-12-31T04:04:29.602Z,6.02
2022-12-31T04:07:32.333Z,5.89
2022-12-31T04:10:35.558Z,5.74
2022-12-31T04:13:38.334Z,5.64
2022-12-31T04:16:41.751Z,5.50
2022-12-31T04:19:44.673Z,5.43
2022-12-31T04:22:47.529Z,5.39
2022-12-31T04:25:50.241Z,5.34
2022-12-31T04:28:52.993Z,5.29
2022-12-31T04:31:56.107Z,5.40
2022-12-31T04:34:58.909Z,5.34
2022-12-31T04:38:01.820Z,5.24
2022-12-31T04:41:18.670Z,5.13
2022-12-31T04:44:21.575Z,5.02
2022-12-31T04:47:24.455Z,4.96
2022-12-31T04:50:27.319Z,4.98
2022-12-31T04:53:30.666Z,4.99
2022-12-31T04:56:35.615Z,5.01
2022-12-31T04:59:38.520Z,5.02
2022-12-31T05:02:41.683Z,5.05
2022-12-31T05:05:44.960Z,5.19
2022-12-31T05:08:48.830Z,5.30
2022-12-31T05:11:51.689Z,5.34
2022-12-31T05:14:54.428Z,5.34
2022-12-31T05:17:57.257Z,5.23
2022-12-31T05:21:00.716Z,5.15
2022-12-31T05:24:03.608Z,5.03
2022-12-31T05:27:06.393Z,5.00
2022-12-31T05:30:09.972Z,4.95
2022-12-31T05:33:12.821Z,4.97
2022-12-31T05:36:15.970Z,4.96
2022-12-31T05:39:18.793Z,4.95
2022-12-31T05:42:22.282Z,4.86
2022-12-31T05:45:30.699Z,4.90
2022-12-31T05:48:34.041Z,4.96
2022-12-31T05:51:36.815Z,5.05
2022-12-31T05:54:39.698Z,5.04
2022-12-31T05:57:42.630Z,5.13
2022-12-31T06:00:46.210Z,5.31
2022-12-31T06:03:49.015Z,5.21
2022-12-31T06:06:51.948Z,5.19
2022-12-31T06:09:55.338Z,5.14
2022-12-31T06:12:58.353Z,5.23
2022-12-31T06:16:09.249Z,5.20
2022-12-31T06:19:12.238Z,5.24
2022-12-31T06:22:15.203Z,5.33
2022-12-31T06:25:18.053Z,5.34
2022-12-31T06:28:20.957Z,5.52
2022-12-31T06:31:23.878Z,5.68
2022-12-31T06:34:26.676Z,5.82
2022-12-31T06:37:29.501Z,6.05
2022-12-31T06:40:32.252Z,6.16
2022-12-31T06:43:35.866Z,6.29
2022-12-31T06:46:38.669Z,6.41
2022-12-31T06:49:41.901Z,6.38
2022-12-31T06:52:44.771Z,6.42
2022-12-31T06:55:50.738Z,6.39
2022-12-31T06:58:54.085Z,6.48
2022-12-31T07:02:26.508Z,6.62
2022-12-31T07:05:55.666Z,6.87
2022-12-31T07:09:16.616Z,7.16
2022-12-31T07:12:50.823Z,7.32
2022-12-31T07:16:09.007Z,7.60
2022-12-31T07:19:38.028Z,7.69
2022-12-31T07:22:41.393Z,7.84
2022-12-31T07:26:10.800Z,8.15
2022-12-31T07:29:29.709Z,8.03
2022-12-31T07:32:57.588Z,7.94
2022-12-31T07:36:13.408Z,8.09
2022-12-31T07:39:25.683Z,8.03
2022-12-31T07:42:48.801Z,8.13
2022-12-31T07:46:32.572Z,8.31
2022-12-31T07:49:41.168Z,8.37
2022-12-31T07:52:44.609Z,8.58
2022-12-31T07:55:50.646Z,8.74
2022-12-31T07:59:13.214Z,8.95
2022-12-31T08:03:00.003Z,9.15
2022-12-31T08:06:30.631Z,9.23
2022-12-31T08:10:02.911Z,9.16
2022-12-31T08:13:10.625Z,9.34
2022-12-31T08:16:14.535Z,9.61
2022-12-31T08:19:32.830Z,9.96
2022-12-31T08:22:57.563Z,10.43
2022-12-31T08:26:13.979Z,10.32
2022-12-31T08:29:36.230Z,10.44
2022-12-31T08:33:08.608Z,10.94
2022-12-31T08:36:21.967Z,11.70
2022-12-31T08:40:06.782Z,14.84
2022-12-31T08:43:52.566Z,18.08
2022-12-31T08:47:04.488Z,18.76
2022-12-31T08:50:13.411Z,18.69
2022-12-31T08:53:16.521Z,19.08
2022-12-31T08:56:29.238Z,20.75
2022-12-31T08:59:46.224Z,21.70
2022-12-31T09:03:01.355Z,23.40
2022-12-31T09:06:22.666Z,24.48
2022-12-31T09:09:50.407Z,23.91
2022-12-31T09:13:11.681Z,24.49
2022-12-31T09:16:24.272Z,24.87
2022-12-31T09:19:27.847Z,25.49
2022-12-31T09:22:31.058Z,25.62
2022-12-31T09:25:39.494Z,25.92
2022-12-31T09:28:59.624Z,26.08
2022-12-31T09:32:20.998Z,25.53
2022-12-31T09:35:48.518Z,23.75
2022-12-31T09:39:08.755Z,23.99
2022-12-31T09:42:48.695Z,25.06
2022-12-31T09:46:28.510Z,25.50
2022-12-31T09:49:45.601Z,26.48
2022-12-31T09:52:58.862Z,26.94
2022-12-31T09:56:27.319Z,25.58
2022-12-31T09:59:41.276Z,25.87
2022-12-31T10:02:56.198Z,25.49
2022-12-31T10:06:22.593Z,26.71
2022-12-31T10:09:46.144Z,26.21
2022-12-31T10:13:26.012Z,28.18
2022-12-31T10:16:47.645Z,27.92
2022-12-31T10:19:53.487Z,28.67
2022-12-31T10:23:23.903Z,29.75
2022-12-31T10:26:38.005Z,29.00
2022-12-31T10:29:48.477Z,29.88
2022-12-31T10:33:00.774Z,29.95
2022-12-31T10:36:09.691Z,29.21
2022-12-31T10:39:43.060Z,30.14
2022-12-31T10:43:17.142Z,30.54
2022-12-31T10:46:38.216Z,31.33
2022-12-31T10:50:02.822Z,30.99
2022-12-31T10:53:29.910Z,30.01
2022-12-31T10:56:44.747Z,28.56
2022-12-31T11:00:22.111Z,28.51
2022-12-31T11:04:08.679Z,27.40
2022-12-31T11:07:46.146Z,26.71
2022-12-31T11:11:26.441Z,23.61
2022-12-31T11:14:50.819Z,21.83
2022-12-31T11:18:00.463Z,19.94
2022-12-31T11:21:28.224Z,19.23
2022-12-31T11:24:54.632Z,18.99
2022-12-31T11:28:12.795Z,18.60
2022-12-31T11:31:46.862Z,18.15
2022-12-31T11:35:23.392Z,18.38
2022-12-31T11:38:38.826Z,18.22
2022-12-31T11:42:01.375Z,17.92
2022-12-31T11:45:35.416Z,17.88
2022-12-31T11:48:38.257Z,18.01
2022-12-31T11:52:21.386Z,18.10
2022-12-31T11:55:35.683Z,19.63
2022-12-31T11:58:42.316Z,19.90
2022-12-31T12:01:57.419Z,18.61
2022-12-31T12:05:08.430Z,18.24
2022-12-31T12:08:14.661Z,18.21
2022-12-31T12:11:30.844Z,17.89
2022-12-31T12:14:39.536Z,18.04
2022-12-31T12:17:43.744Z,17.79
2022-12-31T12:20:48.101Z,17.67
2022-12-31T12:24:23.270Z,17.17
2022-12-31T12:27:31.531Z,17.55
2022-12-31T12:30:41.490Z,17.66
2022-12-31T12:33:46.986Z,17.85
2022-12-31T12:36:50.256Z,18.21
2022-12-31T12:40:18.714Z,18.55
2022-12-31T12:43:24.599Z,19.06
2022-12-31T12:46:48.171Z,19.25
2022-12-31T12:49:54.897Z,19.26
2022-12-31T12:53:27.267Z,18.84
2022-12-31T12:56:35.906Z,19.11
2022-12-31T12:59:53.545Z,19.36
2022-12-31T13:03:28.317Z,18.93
2022-12-31T13:06:50.377Z,18.78
2022-12-31T13:10:15.200Z,18.34
2022-12-31T13:13:33.585Z,18.21
2022-12-31T13:16:43.108Z,18.16
2022-12-31T13:19:50.934Z,18.27
2022-12-31T13:23:22.324Z,17.90
2022-12-31T13:26:33.082Z,17.84
2022-12-31T13:29:37.554Z,17.77
2022-12-31T13:32:51.832Z,17.43
2022-12-31T13:35:58.613Z,17.15
2022-12-31T13:39:06.123Z,16.59
2022-12-31T13:42:33.127Z,16.62
2022-12-31T13:45:43.108Z,16.61
2022-12-31T13:48:56.968Z,16.28
2022-12-31T13:52:27.840Z,16.24
2022-12-31T13:55:38.248Z,16.14
2022-12-31T13:58:53.288Z,16.10
2022-12-31T14:02:27.939Z,15.97
2022-12-31T14:05:59.798Z,15.78
2022-12-31T14:09:03.239Z,15.79
2022-12-31T14:12:33.772Z,15.61
2022-12-31T14:15:44.640Z,15.80
2022-12-31T14:19:13.865Z,15.85
2022-12-31T14:22:38.651Z,15.92
2022-12-31T14:26:04.826Z,15.67
2022-12-31T14:29:07.635Z,15.66
2022-12-31T14:32:21.503Z,15.61
2022-12-31T14:35:45.420Z,15.42
2022-12-31T14:39:16.754Z,15.09
2022-12-31T14:42:55.108Z,14.94
2022-12-31T14:46:27.239Z,14.74
2022-12-31T14:49:33.039Z,14.62
2022-12-31T14:52:50.269Z,14.47
2022-12-31T14:56:02.137Z,14.40
2022-12-31T14:59:29.399Z,14.39
2022-12-31T15:02:35.228Z,14.19
2022-12-31T15:05:38.807Z,13.93
2022-12-31T15:09:12.007Z,13.70
2022-12-31T15:12:24.001Z,13.58
2022-12-31T15:15:41.352Z,13.40
2022-12-31T15:18:58.064Z,13.21
2022-12-31T15:22:26.829Z,13.00
2022-12-31T15:25:40.774Z,12.86
2022-12-31T15:28:44.151Z,12.49
2022-12-31T15:31:48.479Z,12.24
2022-12-31T15:35:02.235Z,12.08
2022-12-31T15:38:38.086Z,11.88
2022-12-31T15:42:18.694Z,11.75
2022-12-31T15:45:19.038Z,11.47
2022-12-31T15:48:27.080Z,11.23
2022-12-31T15:51:44.442Z,11.07
2022-12-31T15:54:54.522Z,10.94
2022-12-31T15:58:03.483Z,10.84
2022-12-31T16:01:22.033Z,10.89
2022-12-31T16:04:28.442Z,10.91
2022-12-31T16:07:32.227Z,10.86
2022-12-31T16:10:36.005Z,10.81
2022-12-31T16:13:48.752Z,10.85
2022-12-31T16:16:54.866Z,10.86
2022-12-31T16:19:59.227Z,10.90
2022-12-31T16:23:03.602Z,10.85
2022-12-31T16:26:08.946Z,10.85
2022-12-31T16:29:15.269Z,10.88
2022-12-31T16:32:19.514Z,10.75
2022-12-31T16:35:32.471Z,10.61
2022-12-31T16:38:37.765Z,10.51
2022-12-31T16:41:43.905Z,10.51
2022-12-31T16:44:48.692Z,10.52
2022-12-31T16:47:51.527Z,10.56
2022-12-31T16:50:56.308Z,10.47
2022-12-31T16:54:01.424Z,10.44
2022-12-31T16:57:06.471Z,10.28
2022-12-31T17:00:16.687Z,10.24
2022-12-31T17:03:23.533Z,10.20
2022-12-31T17:06:28.907Z,10.21
2022-12-31T17:09:37.945Z,10.18
2022-12-31T17:13:27.367Z,10.13
2022-12-31T17:16:18.051Z,10.08
2022-12-31T17:19:33.780Z,10.10
2022-12-31T17:22:43.198Z,10.16
2022-12-31T17:25:46.083Z,10.14
2022-12-31T17:28:51.255Z,10.10
2022-12-31T17:32:02.787Z,10.08
2022-12-31T17:35:30.352Z,9.96
2022-12-31T17:38:36.217Z,9.85
2022-12-31T17:41:39.238Z,9.85
2022-12-31T17:44:45.725Z,9.70
2022-12-31T17:47:52.558Z,9.61
2022-12-31T17:50:58.105Z,9.55
2022-12-31T17:54:01.247Z,9.52
2022-12-31T17:57:04.321Z,9.43
2022-12-31T18:00:09.350Z,9.16
2022-12-31T18:03:15.315Z,9.08
2022-12-31T18:06:19.758Z,9.15
2022-12-31T18:09:23.369Z,9.14
2022-12-31T18:12:26.304Z,9.17
2022-12-31T18:15:29.338Z,9.07
2022-12-31T18:18:35.926Z,8.98
2022-12-31T18:21:38.698Z,8.96
2022-12-31T18:24:42.359Z,9.06
2022-12-31T18:27:45.520Z,9.09
2022-12-31T18:30:48.826Z,8.99
2022-12-31T18:33:54.008Z,8.92
2022-12-31T18:36:57.454Z,8.94
2022-12-31T18:40:00.229Z,8.90
2022-12-31T18:43:05.322Z,8.77
2022-12-31T18:46:13.968Z,8.67
2022-12-31T18:49:16.872Z,8.71
2022-12-31T18:52:22.590Z,8.89
2022-12-31T18:55:32.340Z,9.13
2022-12-31T18:58:35.230Z,9.40
2022-12-31T19:01:40.405Z,9.50
2022-12-31T19:04:43.352Z,9.76
2022-12-31T19:07:46.133Z,9.78
2022-12-31T19:10:51.829Z,9.72
2022-12-31T19:13:54.952Z,9.61
2022-12-31T19:20:04.569Z,9.32
2022-12-31T19:23:15.007Z,9.20
2022-12-31T19:26:20.723Z,9.23
2022-12-31T19:29:26.854Z,9.10
2022-12-31T19:32:30.341Z,9.21
2022-12-31T19:35:39.961Z,9.21
2022-12-31T19:38:43.243Z,9.29
2022-12-31T19:41:56.405Z,9.24
2022-12-31T19:45:01.468Z,9.23
2022-12-31T19:48:04.369Z,9.25
2022-12-31T19:51:15.367Z,9.27
2022-12-31T19:54:18.280Z,9.15
2022-12-31T19:57:21.058Z,9.18
2022-12-31T20:00:23.950Z,9.08
2022-12-31T20:03:27.138Z,8.93
2022-12-31T20:06:30.113Z,8.93
2022-12-31T20:09:32.995Z,8.93
2022-12-31T20:12:39.139Z,8.88
2022-12-31T20:15:47.996Z,8.88
2022-12-31T20:18:51.160Z,8.88
2022-12-31T20:21:54.212Z,8.95
2022-12-31T20:24:58.370Z,9.16
2022-12-31T20:28:01.804Z,9.32
2022-12-31T20:31:09.700Z,9.59
2022-12-31T20:34:13.069Z,9.80
2022-12-31T20:37:16.112Z,9.82
2022-12-31T20:40:19.223Z,9.81
2022-12-31T20:43:22.099Z,9.75
2022-12-31T20:46:28.035Z,9.65
2022-12-31T20:50:09.036Z,9.54
2022-12-31T20:52:53.883Z,9.34
2022-12-31T20:55:56.947Z,9.25
2022-12-31T20:59:00.329Z,9.27
2022-12-31T21:05:25.954Z,9.28
2022-12-31T21:08:34.482Z,9.40
2022-12-31T21:11:56.479Z,9.49
2022-12-31T21:14:59.313Z,9.54
2022-12-31T21:18:02.068Z,9.68
2022-12-31T21:21:04.878Z,9.71
2022-12-31T21:24:08.062Z,9.64
2022-12-31T21:27:10.916Z,9.41
2022-12-31T21:30:18.986Z,9.41
2022-12-31T21:33:22.226Z,9.25
2022-12-31T21:36:25.063Z,9.20
2022-12-31T21:39:28.203Z,9.17
2022-12-31T21:42:30.991Z,9.13
2022-12-31T21:45:34.512Z,9.15
2022-12-31T21:48:37.489Z,9.10
2022-12-31T21:51:59.085Z,9.08
2022-12-31T21:55:22.580Z,8.92
2022-12-31T21:58:27.298Z,8.73
2022-12-31T22:01:49.819Z,8.53
2022-12-31T22:05:17.389Z,8.44
2022-12-31T22:08:15.890Z,8.27
2022-12-31T22:11:22.013Z,8.18
2022-12-31T22:14:24.787Z,8.13
2022-12-31T22:17:27.573Z,8.03
2022-12-31T22:20:30.910Z,7.93
2022-12-31T22:23:35.138Z,8.00
2022-12-31T22:26:43.029Z,8.05
2022-12-31T22:29:47.618Z,7.96
2022-12-31T22:32:50.435Z,7.86
2022-12-31T22:36:07.044Z,7.80
2022-12-31T22:39:43.590Z,7.66
2022-12-31T22:42:37.727Z,7.68
2022-12-31T22:45:40.543Z,7.60
2022-12-31T22:48:43.425Z,7.41
2022-12-31T22:51:56.550Z,7.35
2022-12-31T22:55:01.724Z,7.32
2022-12-31T22:58:04.565Z,7.29
2022-12-31T23:01:14.779Z,7.38
2022-12-31T23:04:17.628Z,7.44
2022-12-31T23:07:20.854Z,7.28
2022-12-31T23:10:43.417Z,7.41
2022-12-31T23:14:04.809Z,7.31
2022-12-31T23:17:30.486Z,7.33
2022-12-31T23:20:53.233Z,7.28
2022-12-31T23:23:56.854Z,7.07
2022-12-31T23:26:59.692Z,6.97
2022-12-31T23:30:02.489Z,7.00
2022-12-31T23:33:08.361Z,7.05
2022-12-31T23:36:11.403Z,7.01
2022-12-31T23:39:14.866Z,7.12
2022-12-31T23:42:17.664Z,7.08
2022-12-31T23:45:20.528Z,7.13
2022-12-31T23:48:23.352Z,7.30
2022-12-31T23:51:26.171Z,7.53
2022-12-31T23:54:29.085Z,7.54
2022-12-31T23:57:31.933Z,7.59
